Lanes Prairie, Missouri
Current Conditions -  °F | °C
As of 11:53 PM on Wednesday 22 Oct 2014 (Local Time) from KVIH Reporting Station
Clear Clear  
Wind Chill:   Ceiling: Unl
Heat Index:   Visibility: 10mi
Dew Point:   Wind: 7mph
Humidity: 76%   Direction: 140°SE
Pressure: 30.18"   Gusts: NA
Location:  38.2601°N, 91.7526°W
Report Text: KVIH 230453Z AUTO 14006KT 10SM CLR 08/04 A3018 RMK AO2 RAB0359E19 SLP220 P0000 T00780039
Loading
Personal Weather Stations






























Interactive Weather Map
Tropical Storm Tracking
New forecast layout! Learn more

10-Day Weather Forecast

Advertisements
Track Severe Weather on mobile